Time;durP1;ratioP1;P1;durP2;ratioP2;P2;SDS_P1;SDS_P2;PMS_P1;PMS_P2;Temp;Humidity;BMP_temperature;BMP_pressure;BME280_temperature;BME280_humidity;BME280_pressure;Samples;Min_cycle;Max_cycle;Signal;HPM_P1;HPM_P2
2022/06/07 00:02:01;;;;;;;8.98;4.90;;;12.20;99.90;;;;;;4996940;28;20085;-76
2022/06/07 00:04:27;;;;;;;10.02;5.18;;;12.20;99.90;;;;;;4996913;28;20050;-76
2022/06/07 00:06:53;;;;;;;8.50;5.07;;;12.20;99.90;;;;;;4997442;28;20104;-76
2022/06/07 00:09:18;;;;;;;8.98;5.50;;;12.20;99.90;;;;;;4996084;28;20039;-76
2022/06/07 00:11:44;;;;;;;13.32;6.00;;;12.40;99.90;;;;;;4996642;28;20104;-75
2022/06/07 00:14:10;;;;;;;9.60;5.55;;;12.30;99.90;;;;;;4996723;28;20050;-75
2022/06/07 00:16:36;;;;;;;10.50;5.13;;;12.20;99.90;;;;;;4995452;28;20050;-75
2022/06/07 00:19:02;;;;;;;11.80;5.25;;;12.40;99.90;;;;;;4996622;28;20042;-75
2022/06/07 00:21:29;;;;;;;7.53;4.85;;;12.40;99.90;;;;;;4996628;28;20046;-75
2022/06/07 00:23:59;;;;;;;7.07;5.10;;;12.30;99.90;;;;;;4996655;28;20047;-74
2022/06/07 00:26:26;;;;;;;10.40;5.65;;;12.40;99.90;;;;;;4996624;28;20165;-74
2022/06/07 00:28:52;;;;;;;8.18;5.38;;;12.20;99.90;;;;;;4997267;28;20430;-75
2022/06/07 00:31:17;;;;;;;12.73;5.07;;;12.20;99.90;;;;;;4996455;28;20046;-75
2022/06/07 00:33:43;;;;;;;9.32;5.32;;;12.20;99.90;;;;;;4995499;28;20359;-75
2022/06/07 00:36:09;;;;;;;9.02;5.22;;;12.40;99.90;;;;;;4996223;28;20382;-75
2022/06/07 00:38:35;;;;;;;9.27;5.13;;;12.20;99.90;;;;;;4979042;28;20034;-74
2022/06/07 00:41:03;;;;;;;8.18;5.20;;;12.30;99.90;;;;;;4996276;28;20045;-75
2022/06/07 00:43:30;;;;;;;10.18;6.00;;;12.40;99.90;;;;;;4997044;28;20442;-74
2022/06/07 00:45:59;;;;;;;9.18;5.15;;;12.30;99.90;;;;;;4996222;28;20442;-73
2022/06/07 00:48:25;;;;;;;8.70;5.20;;;12.40;99.90;;;;;;4994892;28;20077;-75
2022/06/07 00:51:01;;;;;;;8.63;5.05;;;12.30;99.90;;;;;;4994885;28;20128;-74
2022/06/07 00:53:32;;;;;;;9.43;6.10;;;12.30;99.90;;;;;;4994878;28;20046;-74
2022/06/07 00:55:58;;;;;;;7.93;5.18;;;12.20;99.90;;;;;;4996086;28;20128;-75
2022/06/07 00:58:28;;;;;;;9.65;5.03;;;12.30;99.90;;;;;;4994788;28;20077;-74
2022/06/07 01:00:55;;;;;;;8.90;6.30;;;12.30;99.90;;;;;;4997044;28;20461;-74
2022/06/07 01:03:22;;;;;;;10.05;5.93;;;12.30;99.90;;;;;;4978792;28;20050;-73
2022/06/07 01:05:50;;;;;;;12.07;6.57;;;12.30;99.90;;;;;;4996065;28;20411;-73
2022/06/07 01:11:01;;;;;;;9.55;6.45;;;12.30;99.90;;;;;;4996488;28;20058;-77
2022/06/07 01:13:32;;;;;;;8.75;6.90;;;12.30;99.90;;;;;;4978849;28;20061;-73
2022/06/07 01:16:06;;;;;;;12.02;7.40;;;12.40;99.90;;;;;;4994734;28;20463;-73
2022/06/07 01:18:33;;;;;;;13.48;7.72;;;12.40;99.90;;;;;;4994658;28;20061;-73
2022/06/07 01:21:32;;;;;;;12.45;7.43;;;12.30;99.90;;;;;;4995329;28;20110;-74
2022/06/07 01:23:58;;;;;;;13.13;7.25;;;12.40;99.90;;;;;;4995516;28;20378;-73
2022/06/07 01:26:24;;;;;;;11.40;7.28;;;12.40;99.90;;;;;;4995384;28;20038;-73
2022/06/07 01:28:50;;;;;;;10.98;7.70;;;12.40;99.90;;;;;;4996177;28;20463;-73
2022/06/07 01:31:16;;;;;;;13.00;8.52;;;12.50;99.90;;;;;;4995564;28;20128;-73
2022/06/07 01:33:42;;;;;;;13.82;8.43;;;12.40;99.90;;;;;;4995786;28;20042;-73
2022/06/07 01:36:11;;;;;;;13.20;7.93;;;12.40;99.90;;;;;;4995164;28;20441;-73
2022/06/07 01:38:39;;;;;;;11.80;8.38;;;12.50;99.90;;;;;;4995085;28;20051;-73
2022/06/07 01:43:51;;;;;;;13.38;7.68;;;12.40;99.90;;;;;;4994051;28;20094;-74
2022/06/07 01:46:18;;;;;;;12.40;8.25;;;12.40;99.90;;;;;;4995228;28;20089;-73
2022/06/07 01:48:46;;;;;;;11.10;7.95;;;12.50;99.90;;;;;;4994308;28;20058;-74
2022/06/07 01:51:13;;;;;;;11.18;7.85;;;12.40;99.90;;;;;;4995064;28;20058;-73
2022/06/07 01:53:39;;;;;;;12.77;7.85;;;12.40;99.90;;;;;;4993920;28;20058;-73
2022/06/07 01:56:08;;;;;;;11.70;7.97;;;12.40;99.90;;;;;;4978114;28;20458;-71
2022/06/07 01:58:34;;;;;;;14.40;8.13;;;12.50;99.90;;;;;;4994402;28;20043;-73
2022/06/07 02:01:00;;;;;;;10.82;7.97;;;12.50;99.90;;;;;;4993719;28;20049;-73
2022/06/07 02:03:26;;;;;;;12.43;8.27;;;12.60;99.90;;;;;;4994710;28;20046;-73
2022/06/07 02:06:04;;;;;;;13.18;8.90;;;12.50;99.90;;;;;;4977461;28;20042;-74
2022/06/07 02:08:30;;;;;;;14.55;8.40;;;12.50;99.90;;;;;;4994684;28;20054;-74
2022/06/07 02:11:03;;;;;;;14.70;9.45;;;12.40;99.90;;;;;;4994475;28;20053;-74
2022/06/07 02:13:29;;;;;;;18.13;9.98;;;12.50;99.90;;;;;;4994433;28;20129;-72
2022/06/07 02:15:55;;;;;;;14.73;9.95;;;12.50;99.90;;;;;;4995288;28;20523;-73
2022/06/07 02:18:21;;;;;;;15.98;9.43;;;12.60;99.90;;;;;;4994273;28;20054;-71
2022/06/07 02:20:46;;;;;;;14.43;8.70;;;12.50;99.90;;;;;;4993478;28;20060;-73
2022/06/07 02:23:12;;;;;;;13.52;8.18;;;12.50;99.90;;;;;;4993416;28;20594;-74
2022/06/07 02:25:44;;;;;;;10.77;7.32;;;12.60;99.90;;;;;;4992869;28;20046;-74
2022/06/07 02:28:15;;;;;;;9.67;7.60;;;12.50;99.90;;;;;;4994567;28;20085;-72
2022/06/07 02:30:41;;;;;;;10.80;7.03;;;12.50;99.90;;;;;;4994156;28;20340;-72
2022/06/07 02:33:09;;;;;;;13.85;7.85;;;12.80;99.90;;;;;;4994059;28;20042;-72
2022/06/07 02:35:35;;;;;;;13.18;7.93;;;12.50;99.90;;;;;;4993279;28;20100;-72
2022/06/07 02:38:01;;;;;;;10.40;7.80;;;12.50;99.90;;;;;;4994267;28;20050;-73
2022/06/07 02:40:27;;;;;;;11.50;7.53;;;12.50;99.90;;;;;;4993046;28;20085;-75
2022/06/07 02:42:53;;;;;;;9.38;6.95;;;12.60;99.90;;;;;;4977209;28;20051;-75
2022/06/07 02:45:19;;;;;;;9.80;6.60;;;12.50;99.90;;;;;;4994179;28;20505;-74
2022/06/07 02:47:45;;;;;;;9.73;6.32;;;12.60;99.90;;;;;;4994067;28;20133;-71
2022/06/07 02:50:11;;;;;;;13.45;7.80;;;12.50;99.90;;;;;;4976344;28;20058;-71
2022/06/07 02:52:37;;;;;;;10.75;7.38;;;12.60;99.90;;;;;;4993011;28;20051;-71
2022/06/07 02:55:03;;;;;;;9.80;6.60;;;12.50;99.90;;;;;;4977038;28;20055;-71
2022/06/07 02:57:29;;;;;;;10.20;6.68;;;12.60;99.90;;;;;;4994510;28;20052;-71
2022/06/07 02:59:55;;;;;;;9.13;6.97;;;12.50;99.90;;;;;;4994895;28;20047;-71
2022/06/07 03:02:21;;;;;;;9.65;7.63;;;12.60;99.90;;;;;;4997024;28;20058;-71
2022/06/07 03:04:46;;;;;;;10.35;6.95;;;12.80;99.90;;;;;;4997653;28;20459;-71
2022/06/07 03:07:12;;;;;;;11.85;6.82;;;12.50;99.90;;;;;;4981737;28;20117;-71
2022/06/07 03:09:38;;;;;;;10.48;6.65;;;12.40;99.90;;;;;;4997431;28;20046;-70
2022/06/07 03:12:04;;;;;;;10.45;7.00;;;12.60;99.90;;;;;;4997587;28;20046;-70
2022/06/07 03:14:30;;;;;;;15.23;7.22;;;12.50;99.90;;;;;;4998795;28;20102;-71
2022/06/07 03:16:56;;;;;;;11.77;7.47;;;12.50;99.90;;;;;;4997882;28;20470;-71
2022/06/07 03:19:22;;;;;;;14.23;7.50;;;12.80;99.90;;;;;;4998637;28;20057;-70
2022/06/07 03:21:48;;;;;;;11.90;8.05;;;12.50;99.90;;;;;;4997878;28;20046;-70
2022/06/07 03:24:13;;;;;;;10.88;7.38;;;12.60;99.90;;;;;;4980471;28;20047;-71
2022/06/07 03:26:39;;;;;;;14.68;7.70;;;12.50;99.90;;;;;;4980599;28;20097;-70
2022/06/07 03:29:05;;;;;;;11.18;7.35;;;12.70;99.90;;;;;;4996888;28;20173;-70
2022/06/07 03:31:31;;;;;;;11.00;7.97;;;12.60;99.90;;;;;;4980250;28;20042;-70
2022/06/07 03:33:57;;;;;;;10.00;7.65;;;12.60;99.90;;;;;;4996423;28;20046;-70
2022/06/07 03:36:28;;;;;;;13.88;8.10;;;12.60;99.90;;;;;;4996593;28;20188;-70
2022/06/07 03:38:55;;;;;;;13.23;7.10;;;12.70;99.90;;;;;;4996475;28;20058;-72
2022/06/07 03:41:26;;;;;;;13.57;7.93;;;12.70;99.90;;;;;;4997464;28;20042;-71
2022/06/07 03:43:52;;;;;;;13.00;7.57;;;12.60;99.90;;;;;;4997659;28;20054;-72
2022/06/07 03:46:25;;;;;;;11.95;8.52;;;12.70;99.90;;;;;;4980334;28;20057;-71
2022/06/07 03:48:52;;;;;;;12.10;8.07;;;12.70;99.90;;;;;;4997386;28;20507;-71
2022/06/07 03:51:21;;;;;;;11.40;7.60;;;12.90;99.90;;;;;;4997168;28;20129;-71
2022/06/07 03:53:48;;;;;;;14.18;8.05;;;12.60;99.90;;;;;;4997226;28;20053;-71
2022/06/07 03:56:14;;;;;;;11.18;8.10;;;12.70;99.90;;;;;;4995934;28;20109;-70
2022/06/07 03:58:40;;;;;;;11.25;8.25;;;12.50;99.90;;;;;;4996238;28;20046;-73
2022/06/07 04:01:08;;;;;;;10.80;7.10;;;12.60;99.90;;;;;;4997084;28;20082;-70
2022/06/07 04:03:34;;;;;;;13.55;8.48;;;12.60;99.90;;;;;;4997097;28;20042;-70
2022/06/07 04:06:00;;;;;;;11.02;6.90;;;12.60;99.90;;;;;;4996968;28;20107;-69
2022/06/07 04:08:27;;;;;;;12.73;7.70;;;12.70;99.90;;;;;;4996970;28;20057;-71
2022/06/07 04:10:56;;;;;;;14.13;8.15;;;12.70;99.90;;;;;;4995824;28;20137;-70
2022/06/07 04:13:23;;;;;;;11.73;7.72;;;12.70;99.90;;;;;;4978677;28;20082;-70
2022/06/07 04:15:49;;;;;;;13.32;7.75;;;12.60;99.90;;;;;;4996820;28;20050;-72
2022/06/07 04:18:16;;;;;;;15.15;7.82;;;12.70;99.90;;;;;;4995511;28;20050;-70
2022/06/07 04:20:42;;;;;;;12.32;7.45;;;12.80;99.90;;;;;;4996723;28;20042;-70
2022/06/07 04:23:14;;;;;;;12.43;6.82;;;12.60;99.90;;;;;;4995997;28;20187;-73
2022/06/07 04:25:41;;;;;;;14.32;7.78;;;12.70;99.90;;;;;;4996565;28;20057;-70
2022/06/07 04:28:07;;;;;;;13.30;7.70;;;12.70;99.90;;;;;;4996611;28;20050;-70
2022/06/07 04:30:33;;;;;;;13.40;7.70;;;12.90;99.90;;;;;;4996356;28;20058;-70
2022/06/07 04:32:58;;;;;;;13.10;7.65;;;12.70;99.90;;;;;;4996509;28;20046;-72
2022/06/07 04:35:25;;;;;;;13.50;8.60;;;12.90;99.90;;;;;;4980146;28;20383;-71
2022/06/07 04:37:51;;;;;;;14.23;7.97;;;12.80;99.90;;;;;;4996294;28;20422;-71
2022/06/07 04:40:17;;;;;;;13.32;8.07;;;12.70;99.90;;;;;;4980036;28;20054;-72
2022/06/07 04:42:43;;;;;;;13.52;8.55;;;12.70;99.90;;;;;;4996343;28;20044;-73
2022/06/07 04:45:15;;;;;;;12.82;8.38;;;12.70;99.90;;;;;;4979933;28;20382;-72
2022/06/07 04:47:42;;;;;;;11.75;8.40;;;13.10;99.90;;;;;;4979870;28;20058;-74
2022/06/07 04:50:10;;;;;;;15.73;9.13;;;12.70;99.90;;;;;;4995923;28;20391;-73
2022/06/07 04:52:36;;;;;;;15.27;8.70;;;12.70;99.90;;;;;;4994943;28;20047;-72
2022/06/07 04:55:01;;;;;;;14.48;8.38;;;12.80;99.90;;;;;;4978738;28;20050;-74
2022/06/07 04:57:29;;;;;;;13.82;8.73;;;12.70;99.90;;;;;;4996069;28;20046;-72
2022/06/07 04:59:55;;;;;;;15.10;8.70;;;12.70;99.90;;;;;;4995833;28;20126;-74
2022/06/07 05:02:21;;;;;;;14.50;8.30;;;12.70;99.90;;;;;;4996837;28;20463;-72
2022/06/07 05:04:47;;;;;;;14.65;8.70;;;12.70;99.90;;;;;;4995291;28;20081;-74
2022/06/07 05:07:13;;;;;;;15.13;8.05;;;12.70;99.90;;;;;;4995928;28;20050;-77
2022/06/07 05:09:39;;;;;;;14.48;8.50;;;12.70;99.90;;;;;;4994922;28;20053;-73
2022/06/07 05:12:05;;;;;;;15.95;8.80;;;12.80;99.90;;;;;;4994662;28;20042;-73
2022/06/07 05:14:31;;;;;;;12.77;7.95;;;12.70;99.90;;;;;;4978988;28;20081;-72
2022/06/07 05:16:58;;;;;;;10.38;7.47;;;12.80;99.90;;;;;;4994525;28;20104;-73
2022/06/07 05:19:24;;;;;;;12.48;7.43;;;12.60;99.90;;;;;;4994938;28;20055;-72
2022/06/07 05:21:49;;;;;;;11.45;7.35;;;12.60;99.90;;;;;;4994439;28;20130;-76
2022/06/07 05:24:16;;;;;;;10.93;7.63;;;12.60;99.90;;;;;;4993582;28;20054;-74
2022/06/07 05:26:44;;;;;;;14.27;7.75;;;12.60;99.90;;;;;;4978338;28;20426;-74
2022/06/07 05:29:21;;;;;;;10.38;7.15;;;12.60;99.90;;;;;;4995407;28;20047;-73
2022/06/07 05:31:47;;;;;;;10.10;7.28;;;12.60;99.90;;;;;;4994606;28;20046;-74
2022/06/07 05:34:13;;;;;;;11.77;7.80;;;12.60;99.90;;;;;;4994413;28;20069;-73
2022/06/07 05:36:39;;;;;;;10.98;6.70;;;12.60;99.90;;;;;;4994240;28;20069;-73
2022/06/07 05:39:06;;;;;;;10.60;7.18;;;12.60;99.90;;;;;;4995086;28;20452;-76
2022/06/07 05:41:32;;;;;;;10.85;7.07;;;12.90;99.90;;;;;;4995471;28;20541;-76
2022/06/07 05:43:58;;;;;;;10.60;7.13;;;12.70;99.90;;;;;;4995530;28;20046;-72
2022/06/07 05:46:25;;;;;;;13.80;7.70;;;12.70;99.90;;;;;;4995144;28;20043;-75
2022/06/07 05:48:51;;;;;;;13.95;8.05;;;12.60;99.90;;;;;;4993949;28;20057;-71
2022/06/07 05:51:17;;;;;;;14.77;8.07;;;12.50;99.90;;;;;;4994780;28;20089;-72
2022/06/07 05:53:43;;;;;;;11.88;7.60;;;12.50;99.90;;;;;;4993754;28;20045;-72
2022/06/07 05:56:12;;;;;;;11.27;6.97;;;12.40;99.90;;;;;;4993897;28;20050;-73
2022/06/07 05:58:38;;;;;;;10.07;6.28;;;12.40;99.90;;;;;;4993604;28;20088;-73
2022/06/07 06:01:06;;;;;;;9.90;6.03;;;12.40;99.90;;;;;;4993878;28;20058;-76
2022/06/07 06:03:32;;;;;;;9.00;4.63;;;12.40;99.90;;;;;;4994733;28;20053;-74
2022/06/07 06:05:58;;;;;;;6.13;4.43;;;12.40;99.90;;;;;;4993488;28;20042;-74
2022/06/07 06:11:15;;;;;;;7.40;3.97;;;12.40;99.90;;;;;;4995221;28;20096;-79
2022/06/07 06:13:41;;;;;;;6.93;3.87;;;12.20;99.90;;;;;;4993966;28;20078;-76
2022/06/07 06:16:14;;;;;;;6.55;4.00;;;12.20;99.90;;;;;;4994593;28;20054;-75
2022/06/07 06:18:40;;;;;;;5.80;3.50;;;12.40;99.90;;;;;;4995140;28;20444;-75
2022/06/07 06:21:07;;;;;;;5.72;3.55;;;12.40;99.90;;;;;;4994772;28;20042;-74
2022/06/07 06:23:33;;;;;;;7.43;4.40;;;12.20;99.90;;;;;;4994488;28;20054;-74
2022/06/07 06:25:59;;;;;;;4.97;3.47;;;12.20;99.90;;;;;;4994110;28;20046;-77
2022/06/07 06:28:25;;;;;;;4.57;3.15;;;12.20;99.90;;;;;;4994356;28;20050;-74
2022/06/07 06:30:52;;;;;;;4.78;3.10;;;12.20;99.90;;;;;;4994284;28;20054;-74
2022/06/07 06:33:18;;;;;;;4.72;2.33;;;12.30;99.90;;;;;;4994221;28;20358;-75
2022/06/07 06:35:52;;;;;;;4.32;2.20;;;12.20;99.90;;;;;;4994459;28;20057;-75
2022/06/07 06:38:19;;;;;;;5.78;2.72;;;12.30;99.90;;;;;;4994027;28;20482;-75
2022/06/07 06:40:46;;;;;;;5.13;2.30;;;12.40;99.90;;;;;;4994253;28;20053;-74
2022/06/07 06:43:15;;;;;;;4.32;2.03;;;12.30;99.90;;;;;;4995022;28;20097;-75
2022/06/07 06:45:42;;;;;;;2.90;1.60;;;12.20;99.90;;;;;;4994221;28;20458;-77
2022/06/07 06:48:09;;;;;;;2.55;1.55;;;12.30;99.90;;;;;;4994443;28;20105;-80
2022/06/07 06:50:36;;;;;;;3.28;1.70;;;12.30;99.90;;;;;;4993820;28;20509;-80
2022/06/07 06:53:02;;;;;;;3.40;1.95;;;12.40;99.90;;;;;;4994347;28;20525;-75
2022/06/07 06:55:29;;;;;;;2.92;1.98;;;12.40;99.90;;;;;;4993929;28;20050;-76
2022/06/07 06:57:55;;;;;;;4.47;1.85;;;12.50;99.90;;;;;;4993137;28;20442;-80
2022/06/07 07:00:21;;;;;;;2.72;1.77;;;12.40;99.90;;;;;;4993276;28;20050;-75
2022/06/07 07:02:47;;;;;;;4.05;2.45;;;12.40;99.90;;;;;;4992892;28;20042;-77
2022/06/07 07:05:15;;;;;;;3.92;2.10;;;12.50;99.90;;;;;;4994096;28;20047;-75
2022/06/07 07:07:41;;;;;;;4.78;1.90;;;12.40;99.90;;;;;;4994036;28;20046;-78
2022/06/07 07:10:08;;;;;;;3.58;1.83;;;12.30;99.90;;;;;;4994468;28;20082;-80
2022/06/07 07:12:35;;;;;;;3.30;1.80;;;12.30;99.90;;;;;;4992718;28;20533;-76
2022/06/07 07:15:01;;;;;;;5.28;2.60;;;12.30;99.90;;;;;;4994068;28;20089;-73
2022/06/07 07:17:28;;;;;;;4.70;2.53;;;12.20;99.90;;;;;;4992980;28;20558;-77
2022/06/07 07:19:55;;;;;;;4.05;2.38;;;12.10;99.90;;;;;;4992699;28;20054;-77
2022/06/07 07:22:22;;;;;;;8.07;2.40;;;12.10;99.90;;;;;;4993594;28;20519;-77
2022/06/07 07:24:49;;;;;;;5.50;2.58;;;12.10;99.90;;;;;;4994125;28;20151;-75
2022/06/07 07:27:17;;;;;;;6.82;1.77;;;12.00;99.90;;;;;;4976807;28;20507;-77
2022/06/07 07:29:42;;;;;;;3.13;1.70;;;12.20;99.90;;;;;;4993883;28;20051;-78
2022/06/07 07:32:08;;;;;;;4.78;2.35;;;12.20;99.90;;;;;;4976633;28;20475;-78
2022/06/07 07:34:34;;;;;;;5.43;2.33;;;12.00;99.90;;;;;;4976969;28;20146;-79
2022/06/07 07:37:00;;;;;;;4.65;2.00;;;12.00;99.90;;;;;;4993869;28;20109;-77
2022/06/07 07:39:26;;;;;;;7.85;2.80;;;12.00;99.90;;;;;;4994332;28;20364;-78
2022/06/07 07:41:53;;;;;;;5.78;2.13;;;12.10;99.90;;;;;;4992639;28;20034;-76
2022/06/07 07:44:20;;;;;;;3.70;1.60;;;12.50;99.90;;;;;;4992664;28;20050;-73
2022/06/07 07:46:47;;;;;;;4.40;1.45;;;12.40;99.90;;;;;;4993809;28;20093;-72
2022/06/07 07:49:15;;;;;;;2.55;1.20;;;12.10;99.90;;;;;;4979619;28;20569;-81
2022/06/07 07:51:44;;;;;;;2.75;1.10;;;12.10;99.90;;;;;;4997302;28;20449;-71
2022/06/07 07:54:12;;;;;;;2.95;0.80;;;12.10;99.90;;;;;;4980354;28;20062;-72
2022/06/07 07:56:38;;;;;;;2.88;0.55;;;12.20;99.90;;;;;;4995932;28;20056;-74
2022/06/07 07:59:06;;;;;;;3.17;0.60;;;12.20;99.90;;;;;;4996175;28;20042;-72
2022/06/07 08:01:32;;;;;;;3.38;0.60;;;12.30;99.90;;;;;;4997948;28;20069;-72
2022/06/07 08:03:59;;;;;;;2.40;0.68;;;12.30;99.90;;;;;;4995910;28;20053;-74
2022/06/07 08:06:27;;;;;;;2.60;0.60;;;12.70;99.90;;;;;;4997030;28;20053;-72
2022/06/07 08:08:55;;;;;;;1.80;0.70;;;12.30;99.90;;;;;;4997005;28;20082;-72
2022/06/07 08:11:31;;;;;;;3.58;0.80;;;12.40;99.90;;;;;;4995698;28;20045;-72
2022/06/07 08:13:56;;;;;;;2.15;0.80;;;12.50;99.90;;;;;;4997512;28;20057;-70
2022/06/07 08:16:23;;;;;;;2.40;0.75;;;12.50;99.90;;;;;;4996858;28;20046;-75
2022/06/07 08:18:49;;;;;;;2.50;0.98;;;12.60;99.90;;;;;;4996814;28;20054;-71
2022/06/07 08:21:21;;;;;;;4.00;1.05;;;12.90;99.90;;;;;;4996783;28;20121;-80
2022/06/07 08:23:48;;;;;;;5.20;1.05;;;12.80;99.90;;;;;;4997126;28;20380;-75
2022/06/07 08:26:16;;;;;;;1.17;0.60;;;12.90;99.90;;;;;;4996617;28;20117;-83
2022/06/07 08:28:41;;;;;;;4.43;0.80;;;13.00;99.90;;;;;;4996534;28;20062;-76
2022/06/07 08:31:13;;;;;;;3.30;0.68;;;13.00;99.90;;;;;;4995328;28;20050;-72
2022/06/07 08:39:08;;;;;;;2.00;0.60;;;13.10;99.90;;;;;;4997331;28;20059;-72
2022/06/07 08:41:57;;;;;;;2.67;0.80;;;13.10;99.90;;;;;;4996225;28;20058;-72
2022/06/07 08:44:26;;;;;;;3.20;0.80;;;13.10;99.90;;;;;;4995707;28;20138;-71
2022/06/07 08:46:55;;;;;;;4.20;0.80;;;13.10;99.90;;;;;;4995028;28;20053;-72
2022/06/07 08:49:22;;;;;;;3.28;0.52;;;13.30;99.90;;;;;;4994972;28;20066;-73
2022/06/07 08:52:15;;;;;;;2.92;0.60;;;13.20;99.90;;;;;;4996105;28;20046;-72
2022/06/07 08:54:43;;;;;;;2.25;0.80;;;13.20;99.90;;;;;;4979836;28;20094;-71
2022/06/07 08:57:25;;;;;;;2.22;1.10;;;13.30;99.90;;;;;;4996113;28;20054;-71
2022/06/07 08:59:55;;;;;;;1.90;0.70;;;13.30;99.90;;;;;;4977620;28;20141;-73
2022/06/07 09:02:54;;;;;;;1.38;0.60;;;13.40;99.90;;;;;;4995944;28;20046;-72
2022/06/07 09:05:20;;;;;;;1.83;0.70;;;13.40;99.90;;;;;;4994709;28;20065;-72
2022/06/07 09:07:46;;;;;;;2.55;0.77;;;13.50;99.90;;;;;;4994793;28;20042;-73
2022/06/07 09:13:07;;;;;;;1.50;0.60;;;13.60;99.90;;;;;;4979892;28;20086;-71
2022/06/07 09:15:36;;;;;;;1.20;0.57;;;13.60;99.90;;;;;;4994953;28;20057;-71
2022/06/07 09:18:05;;;;;;;3.03;0.80;;;13.70;99.90;;;;;;4995718;28;20114;-71
2022/06/07 09:20:39;;;;;;;2.20;0.70;;;13.70;99.90;;;;;;4994547;28;20053;-79
2022/06/07 09:23:17;;;;;;;1.75;0.80;;;13.80;99.90;;;;;;4995656;28;20050;-72
2022/06/07 09:25:49;;;;;;;4.05;0.90;;;13.80;99.90;;;;;;4994983;28;20054;-71
2022/06/07 09:28:29;;;;;;;3.47;0.90;;;14.60;99.90;;;;;;4994655;28;20050;-71
2022/06/07 09:31:08;;;;;;;2.25;0.90;;;13.90;99.90;;;;;;4994994;28;20054;-71
2022/06/07 09:33:37;;;;;;;1.95;0.73;;;14.10;99.90;;;;;;4994638;28;20042;-73
2022/06/07 09:36:19;;;;;;;3.80;1.20;;;14.10;99.90;;;;;;4994123;28;20129;-72
2022/06/07 09:39:16;;;;;;;3.78;1.27;;;14.10;99.90;;;;;;4994643;28;20050;-72
2022/06/07 09:41:53;;;;;;;4.15;1.63;;;14.20;99.90;;;;;;4989726;28;20066;-72
2022/06/07 09:44:29;;;;;;;4.15;1.30;;;14.20;99.90;;;;;;4993234;28;20050;-82
2022/06/07 09:47:19;;;;;;;1.83;1.02;;;14.30;99.90;;;;;;4994250;28;20046;-72
2022/06/07 09:49:54;;;;;;;3.65;1.13;;;14.30;99.90;;;;;;4993853;28;20054;-71
2022/06/07 09:52:41;;;;;;;6.28;1.33;;;14.40;99.90;;;;;;4994117;28;20046;-71
2022/06/07 09:55:20;;;;;;;2.95;0.70;;;14.50;99.90;;;;;;4994266;28;20124;-71
2022/06/07 09:57:57;;;;;;;4.15;0.70;;;14.40;99.90;;;;;;4976954;28;20054;-73
2022/06/07 10:00:46;;;;;;;1.85;0.60;;;14.50;99.90;;;;;;4994812;28;20077;-71
2022/06/07 10:03:45;;;;;;;5.72;1.10;;;14.50;99.90;;;;;;4994223;28;20133;-71
2022/06/07 10:06:27;;;;;;;3.83;1.10;;;14.60;99.90;;;;;;4993627;28;20529;-80
2022/06/07 10:09:01;;;;;;;3.47;1.15;;;14.60;99.90;;;;;;4993477;28;20520;-77
2022/06/07 10:11:52;;;;;;;2.67;0.70;;;14.70;99.90;;;;;;4992521;28;20048;-72
2022/06/07 10:14:35;;;;;;;2.25;1.00;;;14.70;99.90;;;;;;4992382;28;20049;-72
2022/06/07 10:17:39;;;;;;;3.75;0.80;;;14.60;99.90;;;;;;4993621;28;20054;-74
2022/06/07 10:20:39;;;;;;;4.65;0.80;;;14.60;99.90;;;;;;4989510;28;20092;-71
2022/06/07 10:23:23;;;;;;;2.67;0.80;;;14.60;99.90;;;;;;4993873;28;20049;-71
2022/06/07 10:26:01;;;;;;;3.53;0.77;;;14.60;99.90;;;;;;4993556;28;20046;-71
2022/06/07 10:28:39;;;;;;;3.35;0.77;;;14.60;99.90;;;;;;4993285;28;20475;-72
2022/06/07 10:31:30;;;;;;;4.45;0.80;;;14.50;99.90;;;;;;4994301;28;20093;-72
2022/06/07 10:34:04;;;;;;;4.45;1.00;;;14.40;99.90;;;;;;4989385;28;20113;-70
2022/06/07 10:36:39;;;;;;;5.30;0.90;;;14.30;99.90;;;;;;4976770;28;20141;-70
2022/06/07 10:39:20;;;;;;;3.60;1.02;;;14.30;99.90;;;;;;4993495;28;20054;-72
2022/06/07 10:42:24;;;;;;;4.70;0.70;;;14.10;99.90;;;;;;4992979;28;20050;-72
2022/06/07 10:45:15;;;;;;;4.32;0.73;;;14.00;99.90;;;;;;4971724;28;20514;-71
2022/06/07 10:47:50;;;;;;;5.93;0.68;;;14.00;99.90;;;;;;4969559;28;20061;-71
2022/06/07 10:50:23;;;;;;;4.95;0.70;;;14.00;99.90;;;;;;4969905;28;20090;-72
2022/06/07 10:53:10;;;;;;;4.07;0.60;;;13.90;99.90;;;;;;4991907;28;20494;-70
2022/06/07 10:55:49;;;;;;;3.67;0.80;;;14.20;99.90;;;;;;4993887;28;20072;-70
2022/06/07 10:58:43;;;;;;;6.47;0.75;;;13.80;99.90;;;;;;4993708;28;20050;-70
2022/06/07 11:01:16;;;;;;;4.82;0.90;;;13.80;99.90;;;;;;4978026;28;20051;-70
2022/06/07 11:04:00;;;;;;;;;;;13.70;99.90;;;;;;4993866;28;20047;-70
2022/06/07 11:09:32;;;;;;;3.25;0.90;;;13.90;99.90;;;;;;4991667;28;20491;-71
2022/06/07 11:12:26;;;;;;;1.67;1.02;;;14.20;99.90;;;;;;4991982;28;20126;-71
2022/06/07 11:15:00;;;;;;;4.85;1.00;;;13.90;99.90;;;;;;4992730;28;20048;-72
2022/06/07 11:17:31;;;;;;;2.78;0.90;;;13.90;99.90;;;;;;4992997;28;20046;-71
2022/06/07 11:20:13;;;;;;;2.33;0.70;;;13.90;99.90;;;;;;4992011;28;20046;-71
2022/06/07 11:23:08;;;;;;;3.17;0.80;;;14.00;99.90;;;;;;4993915;28;20097;-71
2022/06/07 11:25:38;;;;;;;2.47;0.80;;;14.00;99.90;;;;;;4988582;28;20110;-70
2022/06/07 11:28:26;;;;;;;4.03;1.75;;;13.90;99.90;;;;;;4996158;28;20042;-71
2022/06/07 11:30:53;;;;;;;4.80;0.85;;;14.20;99.90;;;;;;4996251;28;20098;-70
2022/06/07 11:33:51;;;;;;;3.35;0.85;;;14.30;99.90;;;;;;4979454;28;20056;-72
2022/06/07 11:36:20;;;;;;;2.97;0.90;;;14.40;99.90;;;;;;4982432;28;20483;-71
2022/06/07 11:39:03;;;;;;;1.45;0.65;;;14.60;99.90;;;;;;4997152;28;20050;-71
2022/06/07 11:41:37;;;;;;;2.58;0.70;;;14.60;99.90;;;;;;4997452;28;20092;-71
2022/06/07 11:44:28;;;;;;;3.58;1.00;;;14.60;99.90;;;;;;4997602;28;20501;-71
2022/06/07 11:46:57;;;;;;;3.72;0.77;;;14.60;99.90;;;;;;4997232;28;20050;-71
2022/06/07 11:49:23;;;;;;;3.35;0.55;;;14.60;99.90;;;;;;4995737;28;20059;-71
2022/06/07 11:52:13;;;;;;;2.67;0.60;;;14.60;99.90;;;;;;4996028;28;20050;-71
2022/06/07 11:54:48;;;;;;;2.70;0.70;;;14.60;99.90;;;;;;4997975;28;20366;-71
2022/06/07 11:57:29;;;;;;;3.65;1.00;;;14.60;99.90;;;;;;4980233;28;20054;-71
2022/06/07 12:00:19;;;;;;;3.28;0.80;;;14.60;99.90;;;;;;4997092;28;20047;-70
2022/06/07 12:02:55;;;;;;;3.03;0.77;;;14.50;99.90;;;;;;4996902;28;20050;-70
2022/06/07 12:05:28;;;;;;;4.00;0.63;;;14.50;99.90;;;;;;4996986;28;20054;-70
2022/06/07 12:07:58;;;;;;;3.88;0.75;;;14.40;99.90;;;;;;4996950;28;20053;-71
2022/06/07 12:10:35;;;;;;;3.38;0.70;;;14.40;99.90;;;;;;4996904;28;20118;-71
2022/06/07 12:13:03;;;;;;;3.33;0.60;;;14.30;99.90;;;;;;4995617;28;20046;-70
2022/06/07 12:15:31;;;;;;;2.95;0.65;;;14.30;99.90;;;;;;4996750;28;20053;-70
2022/06/07 12:18:01;;;;;;;6.45;0.70;;;14.30;99.90;;;;;;4996696;28;20042;-72
2022/06/07 12:20:39;;;;;;;3.53;0.75;;;14.30;99.90;;;;;;4995474;28;20057;-71
2022/06/07 12:23:23;;;;;;;4.43;1.13;;;14.40;99.90;;;;;;4979414;28;20043;-70
2022/06/07 12:26:02;;;;;;;2.92;0.65;;;14.30;99.90;;;;;;4995296;28;20058;-70
2022/06/07 12:28:33;;;;;;;3.30;0.80;;;14.40;99.90;;;;;;4996388;28;20121;-70
2022/06/07 12:31:14;;;;;;;2.13;0.70;;;14.50;99.90;;;;;;4997186;28;20047;-71
2022/06/07 12:33:39;;;;;;;5.05;0.93;;;14.50;99.90;;;;;;4995540;28;20042;-75
2022/06/07 12:36:17;;;;;;;5.07;0.73;;;14.60;99.90;;;;;;4996096;28;20434;-71
2022/06/07 12:38:48;;;;;;;1.92;0.73;;;14.80;99.90;;;;;;4996274;28;20421;-72
2022/06/07 12:41:18;;;;;;;3.42;0.90;;;15.10;99.90;;;;;;4996829;28;20387;-70
2022/06/07 12:43:48;;;;;;;5.13;0.90;;;15.20;99.90;;;;;;4995106;28;20487;-70
2022/06/07 12:46:30;;;;;;;4.90;0.88;;;15.30;99.90;;;;;;4996251;28;20050;-71
2022/06/07 12:48:58;;;;;;;2.30;0.80;;;15.40;99.90;;;;;;4994935;28;20062;-70
2022/06/07 12:51:36;;;;;;;3.13;1.00;;;15.30;99.90;;;;;;4994955;28;20055;-71
2022/06/07 12:54:15;;;;;;;3.85;0.90;;;15.30;99.90;;;;;;4996043;28;20081;-71
2022/06/07 12:56:43;;;;;;;5.93;0.90;;;15.30;99.90;;;;;;4996609;28;20054;-71
2022/06/07 12:59:16;;;;;;;4.53;0.90;;;15.30;99.90;;;;;;4978859;28;20046;-71
2022/06/07 13:01:45;;;;;;;3.55;0.80;;;15.30;99.90;;;;;;4978842;28;20062;-70
2022/06/07 13:04:32;;;;;;;3.60;0.70;;;15.20;99.90;;;;;;4994555;28;20046;-70
2022/06/07 13:07:18;;;;;;;2.65;0.90;;;15.20;99.90;;;;;;4996297;28;20054;-72
2022/06/07 13:09:48;;;;;;;5.90;1.10;;;15.20;99.90;;;;;;4993679;28;20514;-71
2022/06/07 13:12:43;;;;;;;4.72;0.90;;;15.20;99.90;;;;;;4994599;28;20042;-72
2022/06/07 13:15:20;;;;;;;3.95;1.40;;;15.30;99.90;;;;;;4993751;28;20062;-71
2022/06/07 13:18:15;;;;;;;6.25;1.00;;;15.30;99.90;;;;;;4995520;28;20403;-72
2022/06/07 13:20:44;;;;;;;4.93;1.00;;;15.40;99.90;;;;;;4990672;28;20062;-72
2022/06/07 13:23:31;;;;;;;3.13;1.20;;;15.50;99.90;;;;;;4996010;28;20047;-72